Time;durP1;ratioP1;P1;durP2;ratioP2;P2;SDS_P1;SDS_P2;PMS_P1;PMS_P2;Temp;Humidity;BMP_temperature;BMP_pressure;BME280_temperature;BME280_humidity;BME280_pressure;Samples;Min_cycle;Max_cycle;Signal;HPM_P1;HPM_P2
2024/02/22 00:01:05;;;;;;;9.82;2.85;;;10.10;99.90;;;;;;5079262;28;20226;-67
2024/02/22 00:03:31;;;;;;;8.70;2.73;;;10.10;99.90;;;;;;5075252;28;20081;-67
2024/02/22 00:05:56;;;;;;;5.35;2.20;;;10.10;99.90;;;;;;5081010;28;20111;-67
2024/02/22 00:08:22;;;;;;;8.50;2.50;;;10.10;99.90;;;;;;5082357;28;20531;-66
2024/02/22 00:10:47;;;;;;;3.47;2.20;;;10.00;99.90;;;;;;5083264;28;20047;-66
2024/02/22 00:13:14;;;;;;;5.85;2.55;;;10.00;99.90;;;;;;5079575;28;20175;-66
2024/02/22 00:15:39;;;;;;;4.00;2.25;;;10.00;99.90;;;;;;5060710;28;20056;-66
2024/02/22 00:18:05;;;;;;;2.88;1.70;;;9.90;99.90;;;;;;5078166;28;20056;-66
2024/02/22 00:20:31;;;;;;;5.43;2.05;;;9.90;99.90;;;;;;5072486;28;20088;-66
2024/02/22 00:22:57;;;;;;;14.82;3.05;;;9.90;99.90;;;;;;5081050;28;20040;-66
2024/02/22 00:25:24;;;;;;;6.28;2.85;;;9.90;99.90;;;;;;5083552;28;20077;-66
2024/02/22 00:28:11;;;;;;;5.05;2.65;;;9.80;99.90;;;;;;5081490;28;20037;-66
2024/02/22 00:30:37;;;;;;;5.40;2.30;;;9.80;99.90;;;;;;5082736;28;20069;-66
2024/02/22 00:33:03;;;;;;;6.85;2.42;;;9.80;99.90;;;;;;5061555;28;20036;-66
2024/02/22 00:35:28;;;;;;;5.35;2.20;;;9.80;99.90;;;;;;5077370;28;20044;-66
2024/02/22 00:38:09;;;;;;;6.63;2.25;;;9.80;99.90;;;;;;5075931;28;20036;-66
2024/02/22 00:40:36;;;;;;;4.13;2.35;;;9.80;99.90;;;;;;5078948;28;20121;-66
2024/02/22 00:43:01;;;;;;;5.22;2.13;;;9.80;99.90;;;;;;5078127;28;20032;-67
2024/02/22 00:45:27;;;;;;;9.52;2.88;;;9.80;99.90;;;;;;5078852;28;20123;-66
2024/02/22 00:48:29;;;;;;;4.47;2.33;;;9.80;99.90;;;;;;5075801;28;20040;-66
2024/02/22 00:50:55;;;;;;;7.20;2.83;;;9.80;99.90;;;;;;5078992;28;20398;-66
2024/02/22 00:53:22;;;;;;;5.47;2.72;;;9.80;99.90;;;;;;5080940;28;20036;-66
2024/02/22 00:55:48;;;;;;;5.57;2.53;;;9.80;99.90;;;;;;5086635;28;20094;-66
2024/02/22 01:01:22;;;;;;;5.32;2.55;;;9.70;99.90;;;;;;5085231;28;20031;-66
2024/02/22 01:03:48;;;;;;;4.38;2.42;;;9.80;99.90;;;;;;5075589;28;20020;-66
2024/02/22 01:06:14;;;;;;;8.07;3.00;;;9.70;99.90;;;;;;5078196;28;20111;-66
2024/02/22 01:08:40;;;;;;;7.18;2.65;;;9.70;99.90;;;;;;5082293;28;20054;-66
2024/02/22 01:11:05;;;;;;;8.98;2.85;;;9.70;99.90;;;;;;5082970;28;20489;-66
2024/02/22 01:27:20;;;;;;;3.65;2.50;;;9.60;99.90;;;;;;5077657;28;20606;-66
2024/02/22 01:29:45;;;;;;;6.18;2.50;;;9.60;99.90;;;;;;5081907;28;20067;-66
2024/02/22 01:32:11;;;;;;;7.72;2.92;;;9.60;99.90;;;;;;5079184;28;20098;-66
2024/02/22 01:34:36;;;;;;;7.97;2.67;;;9.60;99.90;;;;;;5086910;28;20028;-66
2024/02/22 01:37:02;;;;;;;9.70;3.13;;;9.60;99.90;;;;;;5076790;28;20650;-66
2024/02/22 01:39:28;;;;;;;6.85;2.83;;;9.60;99.90;;;;;;5076613;28;20055;-66
2024/02/22 01:41:53;;;;;;;8.18;3.03;;;9.60;99.90;;;;;;5080346;28;20032;-66
2024/02/22 01:44:23;;;;;;;3.95;2.35;;;9.60;99.90;;;;;;5085100;28;20412;-67
2024/02/22 01:46:48;;;;;;;4.13;2.58;;;9.60;99.90;;;;;;5082641;28;20039;-67
2024/02/22 01:49:14;;;;;;;7.43;2.45;;;9.50;99.90;;;;;;5082148;28;20037;-67
2024/02/22 01:51:40;;;;;;;7.95;2.63;;;9.50;99.90;;;;;;5075383;28;20489;-67
2024/02/22 01:54:05;;;;;;;5.38;2.72;;;9.50;99.90;;;;;;5084092;28;20044;-67
2024/02/22 01:56:31;;;;;;;10.13;2.65;;;9.50;99.90;;;;;;5082767;28;20043;-67
2024/02/22 01:58:58;;;;;;;4.35;2.63;;;9.50;99.90;;;;;;5080674;28;20581;-67
2024/02/22 02:01:24;;;;;;;4.80;2.65;;;9.50;99.90;;;;;;5085277;28;20085;-67
2024/02/22 02:03:51;;;;;;;10.55;3.30;;;9.50;99.90;;;;;;5061335;28;20074;-67
2024/02/22 02:06:17;;;;;;;5.38;3.10;;;9.50;99.90;;;;;;5076326;28;20025;-67
2024/02/22 02:08:43;;;;;;;4.93;3.05;;;9.50;99.90;;;;;;5072967;28;20033;-67
2024/02/22 02:11:09;;;;;;;5.70;2.58;;;9.50;99.90;;;;;;5079154;28;20043;-67
2024/02/22 02:13:35;;;;;;;5.20;2.85;;;9.50;99.90;;;;;;5085359;28;20058;-67
2024/02/22 02:16:00;;;;;;;5.57;2.97;;;9.50;99.90;;;;;;5077175;28;20056;-67
2024/02/22 02:18:27;;;;;;;7.20;2.63;;;9.50;99.90;;;;;;5083266;28;20077;-67
2024/02/22 02:21:22;;;;;;;9.57;2.95;;;9.50;99.90;;;;;;5064677;28;20028;-67
2024/02/22 02:24:11;;;;;;;4.63;3.13;;;9.40;99.90;;;;;;5076732;28;20035;-66
2024/02/22 02:26:37;;;;;;;8.23;2.78;;;9.40;99.90;;;;;;5061814;28;20054;-67
2024/02/22 02:29:02;;;;;;;5.72;2.58;;;9.40;99.90;;;;;;5081094;28;20075;-67
2024/02/22 02:31:28;;;;;;;8.10;2.70;;;9.50;99.90;;;;;;5081072;28;20028;-67
2024/02/22 02:44:00;;;;;;;5.15;1.88;;;9.40;99.90;;;;;;5074777;28;20147;-67
2024/02/22 02:46:27;;;;;;;6.75;2.63;;;9.50;99.90;;;;;;5079445;28;20701;-67
2024/02/22 02:48:52;;;;;;;4.03;2.40;;;9.40;99.90;;;;;;5086002;28;20040;-67
2024/02/22 02:51:18;;;;;;;7.85;2.65;;;9.50;99.90;;;;;;5066572;28;20029;-67
2024/02/22 02:53:43;;;;;;;5.28;2.42;;;9.40;99.90;;;;;;5083452;28;20036;-67
2024/02/22 02:56:10;;;;;;;6.90;2.40;;;9.50;99.90;;;;;;5077368;28;20109;-67
2024/02/22 02:58:35;;;;;;;6.03;2.20;;;9.50;99.90;;;;;;5081768;28;20038;-67
2024/02/22 03:01:01;;;;;;;4.85;2.30;;;9.50;99.90;;;;;;5081181;28;20040;-67
2024/02/22 03:03:26;;;;;;;3.28;1.73;;;9.50;99.90;;;;;;5081283;28;20054;-67
2024/02/22 03:05:52;;;;;;;4.22;1.95;;;9.40;99.90;;;;;;5077321;28;20080;-67
2024/02/22 03:08:17;;;;;;;3.38;1.98;;;9.50;99.90;;;;;;5065773;28;20028;-67
2024/02/22 03:10:43;;;;;;;3.67;1.90;;;9.40;99.90;;;;;;5083325;28;20093;-67
2024/02/22 03:13:09;;;;;;;2.33;1.80;;;9.40;99.90;;;;;;5064859;28;20054;-67
2024/02/22 03:15:38;;;;;;;5.82;1.67;;;9.50;99.90;;;;;;5079758;28;20028;-68
2024/02/22 03:18:04;;;;;;;3.72;1.83;;;9.50;99.90;;;;;;5084453;28;20043;-67
2024/02/22 03:20:31;;;;;;;3.65;1.63;;;9.50;99.90;;;;;;5076794;28;20512;-67
2024/02/22 03:22:58;;;;;;;3.67;1.77;;;9.50;99.90;;;;;;5056295;28;20097;-67
2024/02/22 03:25:24;;;;;;;5.82;2.15;;;9.50;99.90;;;;;;5073460;28;20029;-67
2024/02/22 03:27:50;;;;;;;2.45;1.52;;;9.50;99.90;;;;;;5082093;28;20035;-67
2024/02/22 03:30:16;;;;;;;2.95;1.75;;;9.50;99.90;;;;;;5082880;28;20040;-67
2024/02/22 03:32:42;;;;;;;2.42;1.40;;;9.50;99.90;;;;;;5084887;28;20027;-66
2024/02/22 03:35:09;;;;;;;3.55;1.58;;;9.50;99.90;;;;;;5076461;28;20021;-67
2024/02/22 03:37:36;;;;;;;4.32;1.40;;;9.50;99.90;;;;;;5056884;28;20515;-67
2024/02/22 03:40:02;;;;;;;3.97;1.67;;;9.50;99.90;;;;;;5076317;28;20509;-67
2024/02/22 03:42:30;;;;;;;1.55;1.35;;;9.50;99.90;;;;;;5082264;28;20056;-67
2024/02/22 03:44:56;;;;;;;2.08;1.35;;;9.50;99.90;;;;;;5080652;28;20031;-67
2024/02/22 03:47:22;;;;;;;3.70;1.45;;;9.50;99.90;;;;;;5083408;28;20470;-67
2024/02/22 03:49:47;;;;;;;2.38;1.50;;;9.50;99.90;;;;;;5079767;28;20119;-67
2024/02/22 03:52:13;;;;;;;2.38;1.40;;;9.50;99.90;;;;;;5062893;28;20059;-67
2024/02/22 03:54:39;;;;;;;4.18;2.13;;;9.50;99.90;;;;;;5085638;28;20039;-67
2024/02/22 03:57:05;;;;;;;2.33;1.70;;;9.50;99.90;;;;;;5077773;28;20039;-67
2024/02/22 03:59:31;;;;;;;1.73;1.10;;;9.40;99.90;;;;;;5081523;28;20126;-67
2024/02/22 04:01:57;;;;;;;4.50;1.50;;;9.50;99.90;;;;;;5076919;28;20032;-67
2024/02/22 04:04:22;;;;;;;1.40;1.20;;;9.50;99.90;;;;;;5074818;28;20089;-67
2024/02/22 04:06:49;;;;;;;1.80;1.40;;;9.50;99.90;;;;;;5078545;28;20019;-67
2024/02/22 04:09:15;;;;;;;5.32;1.20;;;9.50;99.90;;;;;;5076712;28;20037;-67
2024/02/22 04:11:41;;;;;;;2.00;1.27;;;9.50;99.90;;;;;;5082175;28;20025;-67
2024/02/22 04:14:07;;;;;;;2.75;1.23;;;9.50;99.90;;;;;;5078662;28;20040;-67
2024/02/22 04:16:33;;;;;;;4.80;1.30;;;9.50;99.90;;;;;;5081728;28;20055;-67
2024/02/22 04:18:59;;;;;;;1.27;1.05;;;9.50;99.90;;;;;;5064975;28;20168;-67
2024/02/22 04:21:25;;;;;;;1.73;0.88;;;9.50;99.90;;;;;;5077663;28;20115;-67
2024/02/22 04:23:51;;;;;;;6.80;1.05;;;9.50;99.90;;;;;;5077289;28;20127;-67
2024/02/22 04:26:17;;;;;;;1.50;0.98;;;9.50;99.90;;;;;;5079574;28;20036;-67
2024/02/22 04:28:42;;;;;;;1.17;0.85;;;9.50;99.90;;;;;;5069203;28;20032;-67
2024/02/22 04:31:08;;;;;;;4.13;1.20;;;9.50;99.90;;;;;;5081799;28;20027;-67
2024/02/22 04:33:33;;;;;;;4.72;1.13;;;9.50;99.90;;;;;;5065130;28;20047;-67
2024/02/22 04:35:59;;;;;;;1.45;0.80;;;9.50;99.90;;;;;;5078059;28;20040;-67
2024/02/22 04:38:25;;;;;;;2.78;1.08;;;9.50;99.90;;;;;;5085370;28;20607;-67
2024/02/22 04:40:51;;;;;;;2.08;0.95;;;9.60;99.90;;;;;;5081275;28;20432;-67
2024/02/22 04:43:17;;;;;;;1.20;0.77;;;9.60;99.90;;;;;;5083855;28;20029;-67
2024/02/22 04:45:42;;;;;;;1.77;1.08;;;9.60;99.90;;;;;;5085974;28;20024;-67
2024/02/22 04:48:09;;;;;;;1.60;1.00;;;9.60;99.90;;;;;;5084648;28;20085;-67
2024/02/22 04:50:35;;;;;;;1.90;1.00;;;9.60;99.90;;;;;;5082771;28;20040;-67
2024/02/22 04:53:04;;;;;;;0.95;0.85;;;9.60;99.90;;;;;;5083740;28;20132;-67
2024/02/22 04:55:29;;;;;;;2.67;0.90;;;9.60;99.90;;;;;;5079661;28;20044;-67
2024/02/22 04:57:55;;;;;;;1.67;0.90;;;9.60;99.90;;;;;;5068581;28;20047;-67
2024/02/22 05:00:21;;;;;;;1.55;0.95;;;9.60;99.90;;;;;;5081063;28;20032;-67
2024/02/22 05:02:47;;;;;;;1.60;0.80;;;9.60;99.90;;;;;;5083960;28;20081;-67
2024/02/22 05:05:13;;;;;;;1.13;0.80;;;9.60;99.90;;;;;;5075652;28;20040;-67
2024/02/22 05:07:39;;;;;;;2.47;0.82;;;9.60;99.90;;;;;;5064601;28;20037;-67
2024/02/22 05:10:08;;;;;;;1.35;0.57;;;9.60;99.90;;;;;;5079579;28;20044;-67
2024/02/22 05:12:34;;;;;;;2.17;0.60;;;9.60;99.90;;;;;;5082197;28;20028;-67
2024/02/22 05:15:00;;;;;;;1.00;0.80;;;9.60;99.90;;;;;;5083597;28;20039;-67
2024/02/22 05:17:25;;;;;;;1.50;0.77;;;9.60;99.90;;;;;;5085264;28;20032;-67
2024/02/22 05:19:51;;;;;;;2.75;0.70;;;9.60;99.90;;;;;;5085837;28;20039;-67
2024/02/22 05:22:16;;;;;;;1.25;0.90;;;9.60;99.90;;;;;;5064674;28;20040;-66
2024/02/22 05:24:42;;;;;;;0.90;0.80;;;9.60;99.90;;;;;;5085777;28;20500;-66
2024/02/22 05:27:11;;;;;;;0.50;0.47;;;9.60;99.90;;;;;;5083252;28;20105;-67
2024/02/22 05:29:37;;;;;;;1.45;0.88;;;9.60;99.90;;;;;;5064546;28;20036;-66
2024/02/22 05:32:04;;;;;;;2.08;0.65;;;9.60;99.90;;;;;;5074450;28;20051;-66
2024/02/22 05:34:30;;;;;;;2.50;0.70;;;9.60;99.90;;;;;;5085929;28;20036;-66
2024/02/22 05:36:56;;;;;;;3.65;1.02;;;9.60;99.90;;;;;;5082839;28;20019;-67
2024/02/22 05:39:22;;;;;;;0.80;0.68;;;9.60;99.90;;;;;;5088497;28;20067;-66
2024/02/22 05:41:48;;;;;;;3.17;0.65;;;9.60;99.90;;;;;;5085180;28;20028;-68
2024/02/22 05:44:16;;;;;;;1.50;0.60;;;9.60;99.90;;;;;;5079310;28;20040;-66
2024/02/22 05:46:42;;;;;;;0.77;0.60;;;9.60;99.90;;;;;;5077612;28;20033;-66
2024/02/22 05:49:08;;;;;;;0.63;0.52;;;9.60;99.90;;;;;;5082982;28;20077;-66
2024/02/22 05:51:34;;;;;;;0.70;0.60;;;9.70;99.90;;;;;;5080594;28;20032;-66
2024/02/22 05:53:59;;;;;;;0.35;0.35;;;9.70;99.90;;;;;;5070103;28;20047;-66
2024/02/22 05:56:25;;;;;;;1.15;0.60;;;9.70;99.90;;;;;;5081819;28;20039;-66
2024/02/22 05:58:50;;;;;;;0.60;0.30;;;9.70;99.90;;;;;;5085149;28;20689;-66
2024/02/22 06:01:16;;;;;;;0.30;0.30;;;9.70;99.90;;;;;;5085110;28;20198;-66
2024/02/22 06:03:43;;;;;;;1.77;0.50;;;9.70;99.90;;;;;;5084022;28;20118;-66
2024/02/22 06:06:09;;;;;;;0.88;0.50;;;9.70;99.90;;;;;;5083351;28;20229;-66
2024/02/22 06:08:34;;;;;;;1.20;0.60;;;9.70;99.90;;;;;;5077649;28;20035;-66
2024/02/22 06:11:00;;;;;;;1.10;0.40;;;9.70;99.90;;;;;;5066515;28;20028;-66
2024/02/22 06:13:26;;;;;;;0.20;0.20;;;9.70;99.90;;;;;;5081758;28;20064;-66
2024/02/22 06:15:52;;;;;;;1.55;0.38;;;9.70;99.90;;;;;;5076787;28;20056;-66
2024/02/22 06:18:18;;;;;;;0.75;0.50;;;9.70;99.90;;;;;;5075683;28;20065;-66
2024/02/22 06:20:43;;;;;;;0.47;0.40;;;9.70;99.90;;;;;;5085259;28;20089;-66
2024/02/22 06:23:09;;;;;;;0.28;0.28;;;9.70;99.90;;;;;;5078841;28;20500;-69
2024/02/22 06:25:35;;;;;;;1.25;0.52;;;9.80;99.90;;;;;;5075783;28;20049;-68
2024/02/22 06:28:01;;;;;;;0.45;0.32;;;9.70;99.90;;;;;;5065947;28;20028;-69
2024/02/22 06:30:26;;;;;;;1.40;0.40;;;9.70;99.90;;;;;;5083623;28;20038;-69
2024/02/22 06:32:52;;;;;;;1.77;0.30;;;9.70;99.90;;;;;;5080893;28;20028;-69
2024/02/22 06:35:18;;;;;;;0.32;0.25;;;9.70;99.90;;;;;;5083577;28;20032;-69
2024/02/22 06:37:46;;;;;;;0.65;0.40;;;9.70;99.90;;;;;;5081510;28;20401;-68
2024/02/22 06:40:13;;;;;;;1.27;0.60;;;9.80;99.90;;;;;;5066637;28;20036;-68
2024/02/22 06:42:39;;;;;;;1.27;0.57;;;9.80;99.90;;;;;;5076852;28;20036;-68
2024/02/22 06:45:05;;;;;;;2.35;0.60;;;9.80;99.90;;;;;;5078407;28;20622;-68
2024/02/22 06:47:31;;;;;;;0.40;0.20;;;9.80;99.90;;;;;;5078501;28;20043;-68
2024/02/22 06:49:56;;;;;;;0.40;0.40;;;9.90;99.90;;;;;;5080392;28;21574;-68
2024/02/22 06:52:22;;;;;;;0.70;0.40;;;9.80;99.90;;;;;;5077623;28;20100;-68
2024/02/22 06:54:50;;;;;;;0.60;0.40;;;9.90;99.90;;;;;;5077585;28;20481;-68
2024/02/22 06:57:16;;;;;;;1.97;0.50;;;9.90;99.90;;;;;;5082731;28;20032;-68
2024/02/22 06:59:41;;;;;;;1.23;0.30;;;9.90;99.90;;;;;;5064705;28;20043;-68
2024/02/22 07:02:07;;;;;;;2.58;0.50;;;9.90;99.90;;;;;;5081167;28;20031;-68
2024/02/22 07:04:32;;;;;;;0.40;0.30;;;9.90;99.90;;;;;;5079646;28;20028;-68
2024/02/22 07:06:58;;;;;;;0.40;0.40;;;9.90;99.90;;;;;;5082352;28;20704;-68
2024/02/22 07:09:23;;;;;;;0.73;0.32;;;9.90;99.90;;;;;;5079922;28;20104;-68
2024/02/22 07:11:49;;;;;;;2.13;0.52;;;9.90;99.90;;;;;;5065833;28;20661;-68
2024/02/22 07:14:15;;;;;;;0.77;0.40;;;9.90;99.90;;;;;;5085210;28;20032;-68
2024/02/22 07:16:41;;;;;;;0.70;0.32;;;9.90;99.90;;;;;;5078050;28;20067;-68
2024/02/22 07:19:07;;;;;;;0.47;0.20;;;9.90;99.90;;;;;;5076113;28;20093;-68
2024/02/22 07:21:34;;;;;;;0.60;0.35;;;9.90;99.90;;;;;;5063870;28;20066;-68
2024/02/22 07:24:00;;;;;;;0.30;0.30;;;9.90;99.90;;;;;;5083658;28;20028;-68
2024/02/22 07:26:25;;;;;;;1.05;0.52;;;10.00;99.90;;;;;;5082196;28;20033;-68
2024/02/22 07:28:51;;;;;;;0.65;0.40;;;10.00;99.90;;;;;;5082185;28;20416;-68
2024/02/22 07:31:16;;;;;;;0.63;0.30;;;10.00;99.90;;;;;;5079740;28;20123;-68
2024/02/22 07:33:42;;;;;;;2.72;0.32;;;10.00;99.90;;;;;;5077834;28;20031;-68
2024/02/22 07:36:09;;;;;;;2.08;0.38;;;10.00;99.90;;;;;;5079483;28;20122;-68
2024/02/22 07:38:36;;;;;;;0.70;0.35;;;10.00;99.90;;;;;;5082797;28;20036;-68
2024/02/22 07:41:05;;;;;;;1.93;0.27;;;10.00;99.90;;;;;;5089641;28;20032;-68
2024/02/22 07:43:31;;;;;;;0.80;0.57;;;10.00;99.90;;;;;;5063955;28;20047;-68
2024/02/22 07:45:56;;;;;;;1.40;0.40;;;10.10;99.90;;;;;;5082078;28;20016;-68
2024/02/22 07:48:22;;;;;;;2.30;0.32;;;10.10;99.90;;;;;;5078209;28;20033;-68
2024/02/22 07:50:48;;;;;;;0.50;0.50;;;10.10;99.90;;;;;;5077304;28;20722;-68
2024/02/22 07:53:13;;;;;;;1.95;0.93;;;10.10;99.90;;;;;;5063150;28;20041;-68
2024/02/22 07:55:39;;;;;;;0.70;0.40;;;10.10;99.90;;;;;;5075020;28;20123;-68
2024/02/22 07:58:04;;;;;;;4.55;0.40;;;10.10;99.90;;;;;;5061550;28;20178;-69
2024/02/22 08:00:30;;;;;;;1.13;0.30;;;10.10;99.90;;;;;;5080494;28;20020;-68
2024/02/22 08:02:55;;;;;;;0.30;0.28;;;10.10;99.90;;;;;;5079528;28;20039;-68
2024/02/22 08:05:22;;;;;;;0.38;0.30;;;10.10;99.90;;;;;;5077223;28;20139;-68
2024/02/22 08:07:48;;;;;;;1.65;0.30;;;10.10;99.90;;;;;;5080869;28;20074;-68
2024/02/22 08:10:14;;;;;;;0.60;0.40;;;10.20;99.90;;;;;;5081851;28;20044;-68
2024/02/22 08:12:39;;;;;;;0.65;0.50;;;10.10;99.90;;;;;;5083165;28;20158;-68
2024/02/22 08:15:07;;;;;;;1.20;0.68;;;10.20;99.90;;;;;;5082019;28;20040;-68
2024/02/22 08:17:35;;;;;;;2.13;0.55;;;10.20;99.90;;;;;;5077235;28;20040;-68
2024/02/22 08:20:00;;;;;;;1.08;0.80;;;10.20;99.90;;;;;;5078538;28;20067;-68
2024/02/22 08:22:26;;;;;;;0.63;0.60;;;10.20;99.90;;;;;;5078430;28;20048;-68
2024/02/22 08:24:52;;;;;;;3.00;0.90;;;10.30;99.90;;;;;;5077360;28;20032;-68
2024/02/22 08:27:18;;;;;;;2.63;1.10;;;10.30;99.90;;;;;;5077191;28;20035;-69
2024/02/22 08:29:48;;;;;;;1.73;1.08;;;10.30;99.90;;;;;;5082722;28;20024;-68
2024/02/22 08:32:14;;;;;;;2.38;1.52;;;10.30;99.90;;;;;;5082003;28;20557;-68
2024/02/22 08:34:39;;;;;;;2.20;1.33;;;10.40;99.90;;;;;;5082452;28;20111;-68
2024/02/22 08:37:05;;;;;;;3.40;1.67;;;10.40;99.90;;;;;;5075892;28;20552;-68
2024/02/22 08:39:30;;;;;;;9.30;1.75;;;10.40;99.90;;;;;;5079105;28;20489;-68
2024/02/22 08:41:56;;;;;;;2.88;1.20;;;10.40;99.90;;;;;;5077159;28;20060;-68
2024/02/22 08:44:22;;;;;;;2.47;1.23;;;10.50;99.90;;;;;;5077716;28;20048;-68
2024/02/22 08:46:47;;;;;;;3.38;1.30;;;10.50;99.90;;;;;;5079654;28;20081;-68
2024/02/22 08:49:13;;;;;;;1.38;0.90;;;10.50;99.90;;;;;;5083303;28;20157;-68
2024/02/22 08:51:38;;;;;;;2.75;0.95;;;10.50;99.90;;;;;;5078988;28;20028;-68
2024/02/22 08:54:04;;;;;;;1.58;0.95;;;10.60;99.90;;;;;;5080179;28;20511;-68
2024/02/22 08:56:30;;;;;;;5.13;1.20;;;10.60;99.90;;;;;;5075425;28;20050;-68
2024/02/22 08:58:57;;;;;;;3.10;1.10;;;10.60;99.90;;;;;;5080886;28;20043;-68
2024/02/22 09:01:23;;;;;;;4.57;1.20;;;10.60;99.90;;;;;;5079532;28;20430;-68
2024/02/22 09:03:49;;;;;;;2.08;0.98;;;10.70;99.90;;;;;;5080335;28;20112;-68
2024/02/22 09:06:15;;;;;;;1.40;0.90;;;10.70;99.90;;;;;;5076353;28;20271;-68
2024/02/22 09:08:41;;;;;;;4.45;0.93;;;10.70;99.90;;;;;;5083394;28;20049;-68
2024/02/22 09:11:07;;;;;;;2.42;0.60;;;10.80;99.90;;;;;;5067007;28;20038;-68
2024/02/22 09:13:33;;;;;;;3.30;1.08;;;10.80;99.90;;;;;;5084327;28;20649;-68
2024/02/22 09:15:59;;;;;;;6.03;0.95;;;10.80;99.90;;;;;;5063118;28;20032;-68
2024/02/22 09:18:24;;;;;;;1.20;0.95;;;10.80;99.90;;;;;;5083344;28;20074;-68
2024/02/22 09:20:50;;;;;;;1.30;0.80;;;10.90;99.90;;;;;;5063292;28;20028;-68
2024/02/22 09:23:16;;;;;;;2.55;0.98;;;10.90;99.90;;;;;;5087554;28;20032;-68
2024/02/22 09:25:42;;;;;;;2.50;1.13;;;10.90;99.90;;;;;;5084128;28;20036;-68
2024/02/22 09:28:08;;;;;;;2.17;1.08;;;11.00;99.90;;;;;;5081943;28;20032;-68
2024/02/22 09:30:35;;;;;;;2.30;1.15;;;11.00;99.90;;;;;;5080757;28;20039;-68
2024/02/22 09:33:00;;;;;;;2.80;1.30;;;11.10;99.90;;;;;;5080161;28;20070;-68
2024/02/22 09:35:26;;;;;;;2.13;1.40;;;11.10;99.90;;;;;;5081982;28;20024;-68
2024/02/22 09:37:52;;;;;;;3.83;1.27;;;11.10;99.90;;;;;;5085511;28;20028;-68
2024/02/22 09:40:21;;;;;;;3.33;1.60;;;11.20;99.90;;;;;;5080315;28;20498;-69
2024/02/22 09:42:47;;;;;;;3.72;1.50;;;11.10;99.90;;;;;;5080839;28;20032;-68
2024/02/22 09:45:13;;;;;;;2.88;1.20;;;11.20;99.90;;;;;;5084024;28;20016;-68
2024/02/22 09:47:39;;;;;;;2.83;1.23;;;11.20;99.90;;;;;;5086323;28;20119;-68
2024/02/22 09:50:09;;;;;;;5.60;1.58;;;11.20;99.90;;;;;;5082017;28;20120;-68
2024/02/22 09:52:38;;;;;;;3.88;1.23;;;11.20;99.90;;;;;;5084557;28;20093;-68
2024/02/22 09:55:05;;;;;;;2.08;1.35;;;11.20;99.90;;;;;;5067640;28;20032;-68
2024/02/22 09:57:31;;;;;;;3.08;1.42;;;11.20;99.90;;;;;;5086923;28;20043;-68
2024/02/22 09:59:59;;;;;;;1.67;1.17;;;11.20;99.90;;;;;;5067024;28;20032;-68
2024/02/22 10:02:24;;;;;;;2.05;1.20;;;11.30;99.90;;;;;;5081613;28;20115;-68
2024/02/22 10:04:51;;;;;;;7.38;1.38;;;11.30;99.90;;;;;;5066549;28;20612;-69
2024/02/22 10:07:22;;;;;;;3.35;1.40;;;11.30;99.90;;;;;;5081541;28;20036;-69
2024/02/22 10:09:47;;;;;;;3.38;1.48;;;11.40;99.90;;;;;;5083423;28;20400;-68
2024/02/22 10:12:32;;;;;;;2.80;1.77;;;11.50;99.90;;;;;;5086431;28;20020;-68
2024/02/22 10:14:58;;;;;;;2.75;1.38;;;11.60;99.90;;;;;;5082185;28;20054;-68
2024/02/22 10:17:25;;;;;;;5.22;1.77;;;11.60;99.90;;;;;;5083637;28;20127;-68
2024/02/22 10:19:58;;;;;;;2.50;1.47;;;11.70;99.90;;;;;;5081706;28;20504;-68
2024/02/22 10:22:25;;;;;;;2.85;1.63;;;11.70;99.90;;;;;;5080926;28;20123;-68
2024/02/22 10:24:52;;;;;;;3.60;1.60;;;11.70;99.90;;;;;;5065340;28;20024;-68
2024/02/22 10:27:22;;;;;;;2.65;1.60;;;11.80;99.90;;;;;;5084175;28;20546;-68
2024/02/22 10:29:49;;;;;;;1.40;1.17;;;11.80;99.90;;;;;;5085563;28;20032;-69
2024/02/22 10:32:18;;;;;;;2.80;1.30;;;11.90;99.90;;;;;;5082363;28;20067;-68
2024/02/22 10:34:49;;;;;;;3.00;1.40;;;12.00;99.90;;;;;;5078483;28;20091;-69
2024/02/22 10:37:16;;;;;;;5.63;1.60;;;12.00;99.90;;;;;;5075342;28;20066;-68
2024/02/22 10:39:44;;;;;;;2.00;1.30;;;12.10;99.90;;;;;;5082633;28;20052;-70
2024/02/22 10:42:14;;;;;;;4.13;1.60;;;12.30;99.90;;;;;;5082719;28;20105;-69
2024/02/22 10:44:46;;;;;;;2.45;1.48;;;12.40;99.90;;;;;;5062440;28;20127;-68
2024/02/22 10:47:12;;;;;;;2.33;1.50;;;12.50;99.90;;;;;;5078860;28;20119;-69
2024/02/22 10:49:39;;;;;;;4.38;1.85;;;12.70;99.90;;;;;;5084962;28;20097;-69
2024/02/22 10:52:10;;;;;;;5.10;1.80;;;12.80;99.90;;;;;;5081394;28;20047;-68
2024/02/22 10:54:40;;;;;;;5.10;1.63;;;12.80;99.90;;;;;;5082315;28;20036;-69
2024/02/22 10:57:07;;;;;;;9.30;1.65;;;12.90;99.90;;;;;;5078508;28;20032;-69
2024/02/22 10:59:34;;;;;;;2.43;1.70;;;12.80;99.90;;;;;;5083480;28;20117;-69
2024/02/22 11:02:00;;;;;;;4.13;1.45;;;12.80;99.90;;;;;;5082925;28;20090;-68
2024/02/22 11:04:26;;;;;;;3.97;1.63;;;12.90;99.90;;;;;;5080966;28;20020;-68
2024/02/22 11:06:52;;;;;;;4.25;1.67;;;12.90;99.90;;;;;;5075960;28;20020;-68
2024/02/22 11:09:24;;;;;;;4.20;1.30;;;12.90;99.90;;;;;;5081621;28;20032;-68
2024/02/22 11:11:59;;;;;;;1.65;1.20;;;12.80;99.90;;;;;;5062464;28;20113;-68
2024/02/22 11:14:27;;;;;;;3.15;1.45;;;12.80;99.90;;;;;;5072603;28;20112;-68
2024/02/22 11:16:52;;;;;;;1.98;1.17;;;12.90;99.90;;;;;;5075889;28;20129;-68
2024/02/22 11:19:24;;;;;;;4.50;1.33;;;12.80;99.90;;;;;;5080337;28;20089;-68
2024/02/22 11:21:51;;;;;;;1.85;1.45;;;12.80;99.90;;;;;;5080013;28;20094;-69
2024/02/22 11:24:27;;;;;;;1.48;1.10;;;12.80;99.90;;;;;;5077164;28;20428;-68
2024/02/22 11:26:55;;;;;;;3.00;1.55;;;12.80;99.90;;;;;;5075988;28;20123;-68
2024/02/22 11:29:31;;;;;;;1.15;0.93;;;13.00;99.90;;;;;;5084408;28;20507;-69
2024/02/22 11:32:05;;;;;;;0.50;0.50;;;13.10;99.90;;;;;;5076449;28;20413;-68
2024/02/22 11:34:32;;;;;;;0.80;0.80;;;13.10;99.90;;;;;;5071608;28;21419;-68
2024/02/22 11:37:09;;;;;;;1.00;0.70;;;13.20;99.90;;;;;;5067495;28;20035;-68
2024/02/22 11:39:34;;;;;;;3.60;0.77;;;13.20;99.90;;;;;;5064478;28;20496;-68
2024/02/22 11:42:00;;;;;;;0.60;0.60;;;13.20;99.90;;;;;;5076749;28;20051;-69
2024/02/22 11:44:26;;;;;;;0.68;0.60;;;13.20;99.90;;;;;;5075878;28;20539;-68
2024/02/22 11:46:52;;;;;;;0.88;0.82;;;13.20;99.90;;;;;;5078933;28;20518;-68
2024/02/22 11:49:19;;;;;;;0.93;0.70;;;13.20;99.90;;;;;;5080850;28;20682;-68
2024/02/22 11:51:45;;;;;;;0.70;0.70;;;13.20;99.90;;;;;;5078636;28;20040;-69
2024/02/22 11:54:15;;;;;;;0.68;0.68;;;13.30;99.90;;;;;;5081752;28;20113;-68
2024/02/22 11:56:41;;;;;;;0.95;0.50;;;13.50;99.90;;;;;;5076187;28;20112;-68
2024/02/22 11:59:08;;;;;;;0.82;0.70;;;13.80;99.90;;;;;;5079448;28;20036;-69
2024/02/22 12:01:38;;;;;;;0.50;0.50;;;14.30;99.90;;;;;;5061402;28;20024;-68
2024/02/22 12:04:04;;;;;;;0.88;0.70;;;14.50;99.90;;;;;;5059439;28;20049;-69
2024/02/22 12:06:31;;;;;;;0.45;0.45;;;14.80;99.90;;;;;;5081059;28;20028;-69
2024/02/22 12:08:57;;;;;;;0.90;0.52;;;15.20;99.90;;;;;;5075287;28;20081;-69
2024/02/22 12:11:23;;;;;;;0.73;0.43;;;15.20;99.90;;;;;;5078039;28;20071;-68
2024/02/22 12:13:58;;;;;;;3.40;0.70;;;15.20;99.90;;;;;;5079174;28;20625;-68
2024/02/22 12:16:26;;;;;;;0.95;0.40;;;15.40;99.90;;;;;;5081190;28;20032;-69
2024/02/22 12:18:52;;;;;;;0.40;0.40;;;15.40;99.90;;;;;;5064252;28;20133;-68
2024/02/22 12:21:22;;;;;;;0.55;0.52;;;15.60;99.90;;;;;;5079416;28;20051;-68
2024/02/22 12:23:55;;;;;;;0.20;0.20;;;15.60;99.90;;;;;;5080008;28;20028;-69
2024/02/22 12:26:20;;;;;;;1.85;0.47;;;15.40;99.90;;;;;;5075219;28;20032;-69
2024/02/22 12:28:51;;;;;;;0.65;0.40;;;15.40;99.90;;;;;;5080688;28;20036;-69
2024/02/22 12:31:21;;;;;;;0.30;0.20;;;15.50;99.90;;;;;;5082317;28;20138;-68
2024/02/22 12:33:51;;;;;;;0.28;0.22;;;15.70;99.90;;;;;;5080156;28;20025;-68
2024/02/22 12:36:21;;;;;;;1.45;0.52;;;16.00;99.90;;;;;;5074081;28;20699;-68
2024/02/22 12:38:47;;;;;;;0.43;0.22;;;16.00;99.90;;;;;;5081371;28;20044;-68
2024/02/22 12:41:14;;;;;;;0.40;0.40;;;16.10;99.90;;;;;;5059562;28;20036;-69
2024/02/22 12:43:45;;;;;;;0.93;0.45;;;16.00;99.90;;;;;;5073469;28;20707;-69
2024/02/22 12:46:13;;;;;;;0.20;0.20;;;15.90;99.90;;;;;;5085361;28;20036;-69
2024/02/22 12:48:39;;;;;;;0.32;0.10;;;15.80;99.90;;;;;;5080855;28;20016;-68
2024/02/22 12:51:05;;;;;;;0.65;0.30;;;15.70;99.90;;;;;;5082056;28;20641;-68
2024/02/22 12:53:32;;;;;;;1.20;0.13;;;15.50;99.90;;;;;;5086413;28;20124;-69
2024/02/22 12:56:00;;;;;;;0.67;0.30;;;15.30;99.90;;;;;;5075463;28;20035;-68
2024/02/22 12:58:26;;;;;;;1.30;0.30;;;15.00;99.90;;;;;;5084637;28;20067;-68
2024/02/22 13:00:52;;;;;;;0.08;0.08;;;14.70;99.90;;;;;;5079825;28;20032;-68
2024/02/22 13:03:18;;;;;;;0.10;0.10;;;14.60;99.90;;;;;;5078884;28;20046;-69
2024/02/22 13:05:43;;;;;;;2.38;0.30;;;14.30;99.90;;;;;;5085067;28;20094;-68
2024/02/22 13:08:09;;;;;;;0.30;0.20;;;14.20;99.90;;;;;;5081435;28;20055;-68
2024/02/22 13:10:35;;;;;;;0.20;0.20;;;14.10;99.90;;;;;;5082098;28;20125;-69
2024/02/22 13:13:00;;;;;;;0.30;0.20;;;14.10;99.90;;;;;;5080952;28;20114;-68
2024/02/22 13:15:26;;;;;;;0.77;0.40;;;13.90;99.90;;;;;;5084769;28;20604;-68
2024/02/22 13:17:51;;;;;;;2.08;0.40;;;13.90;99.90;;;;;;5079234;28;20044;-70